Time;durP1;ratioP1;P1;durP2;ratioP2;P2;SDS_P1;SDS_P2;PMS_P1;PMS_P2;Temp;Humidity;BMP_temperature;BMP_pressure;BME280_temperature;BME280_humidity;BME280_pressure;Samples;Min_cycle;Max_cycle;Signal;HPM_P1;HPM_P2
2023/10/06 00:01:21;;;;;;;0.10;0.10;;;;;;;22.34;54.39;102442.22;5071031;28;20115;-73
2023/10/06 00:03:47;;;;;;;0.10;0.10;;;;;;;21.09;57.72;102436.44;5071042;28;20064;-73
2023/10/06 00:06:22;;;;;;;0.10;0.10;;;;;;;21.99;55.50;102434.59;5052603;28;20045;-73
2023/10/06 00:08:51;;;;;;;0.10;0.10;;;;;;;21.76;56.10;102430.25;5070877;28;20044;-72
2023/10/06 00:11:31;;;;;;;0.10;0.10;;;;;;;21.09;58.84;102423.56;5071071;28;20028;-71
2023/10/06 00:14:00;;;;;;;0.10;0.10;;;;;;;21.40;57.20;102413.81;5070862;28;20103;-71
2023/10/06 00:16:27;;;;;;;0.10;0.10;;;;;;;21.77;56.00;102417.41;5071013;28;20094;-71
2023/10/06 00:18:56;;;;;;;0.10;0.10;;;;;;;22.63;53.45;102418.84;5070697;28;20115;-72
2023/10/06 00:21:22;;;;;;;0.20;0.20;;;;;;;21.95;55.62;102416.22;5052804;28;20029;-71
2023/10/06 00:23:47;;;;;;;0.10;0.10;;;;;;;22.05;55.02;102410.81;5070783;28;20048;-72
2023/10/06 00:26:18;;;;;;;0.13;0.13;;;;;;;22.58;53.64;102405.13;5071005;28;20032;-73
2023/10/06 00:28:47;;;;;;;0.10;0.10;;;;;;;22.03;54.33;102405.63;5070610;28;20041;-72
2023/10/06 00:31:13;;;;;;;0.10;0.10;;;;;;;22.16;54.50;102405.13;5070741;28;20506;-72
2023/10/06 00:33:41;;;;;;;0.10;0.10;;;;;;;21.40;56.46;102400.13;5070548;28;20044;-71
2023/10/06 00:36:14;;;;;;;0.20;0.20;;;;;;;22.14;54.80;102403.75;5069967;28;20040;-73
2023/10/06 00:38:50;;;;;;;0.10;0.10;;;;;;;23.14;52.64;102404.22;5070437;28;20036;-72
2023/10/06 00:41:15;;;;;;;0.10;0.10;;;;;;;22.45;53.07;102394.59;5070943;28;20391;-72
2023/10/06 00:43:43;;;;;;;0.10;0.10;;;;;;;22.56;54.04;102393.59;5070457;28;20040;-73
2023/10/06 00:46:10;;;;;;;0.10;0.10;;;;;;;22.63;53.24;102405.97;5070003;28;20048;-72
2023/10/06 00:48:39;;;;;;;0.15;0.15;;;;;;;22.28;54.21;102400.28;5070205;28;20114;-72
2023/10/06 00:51:25;;;;;;;0.10;0.10;;;;;;;22.62;53.20;102406.25;5063299;28;20045;-73
2023/10/06 00:53:56;;;;;;;0.10;0.10;;;;;;;22.76;53.46;102407.38;5049820;28;20029;-72
2023/10/06 00:56:25;;;;;;;0.13;0.13;;;;;;;21.83;56.44;102411.75;5064204;28;20060;-69
2023/10/06 00:58:54;;;;;;;0.10;0.10;;;;;;;21.77;56.34;102411.94;5054080;28;20100;-71
2023/10/06 01:01:21;;;;;;;0.10;0.10;;;;;;;22.97;52.40;102411.88;5049682;28;20119;-72
2023/10/06 01:04:11;;;;;;;0.10;0.10;;;;;;;22.64;54.11;102406.81;5049877;28;20059;-73
2023/10/06 01:06:39;;;;;;;0.10;0.10;;;;;;;22.55;53.77;102409.19;5049881;28;20029;-72
2023/10/06 01:09:16;;;;;;;0.10;0.10;;;;;;;22.56;53.78;102393.59;5049963;28;20056;-73
2023/10/06 01:11:44;;;;;;;0.10;0.10;;;;;;;22.54;53.84;102382.06;5049823;28;20049;-72
2023/10/06 01:14:11;;;;;;;0.10;0.10;;;;;;;22.73;53.22;102393.41;5049968;28;20032;-72
2023/10/06 01:16:36;;;;;;;0.10;0.10;;;;;;;23.04;52.65;102389.66;5030661;28;20044;-72
2023/10/06 01:19:25;;;;;;;0.10;0.10;;;;;;;22.17;55.02;102384.06;5049326;28;20393;-72
2023/10/06 01:21:55;;;;;;;0.10;0.10;;;;;;;22.38;54.40;102372.97;5049686;28;20044;-73
2023/10/06 01:24:25;;;;;;;0.10;0.10;;;;;;;22.05;55.32;102375.22;5049855;28;20029;-73
2023/10/06 01:26:52;;;;;;;0.10;0.10;;;;;;;22.09;55.05;102376.34;5050038;28;20534;-71
2023/10/06 01:29:22;;;;;;;0.20;0.20;;;;;;;22.50;53.83;102372.72;5049620;28;20047;-73
2023/10/06 01:31:49;;;;;;;0.10;0.10;;;;;;;22.59;53.82;102371.16;5049671;28;20068;-71
2023/10/06 01:34:15;;;;;;;0.10;0.10;;;;;;;22.52;53.35;102367.81;5049297;28;20033;-72
2023/10/06 01:36:42;;;;;;;0.10;0.10;;;;;;;21.84;55.24;102366.03;5031447;28;20516;-73
2023/10/06 01:39:16;;;;;;;0.10;0.10;;;;;;;22.18;54.15;102367.38;5049517;28;20041;-73
2023/10/06 01:41:46;;;;;;;0.10;0.10;;;;;;;22.65;53.76;102370.91;5049423;28;20520;-73
2023/10/06 01:44:12;;;;;;;0.10;0.10;;;;;;;21.68;56.80;102372.44;5049730;28;20392;-73
2023/10/06 01:46:38;;;;;;;0.20;0.20;;;;;;;22.52;54.00;102365.91;5048735;28;20029;-72
2023/10/06 01:49:04;;;;;;;0.10;0.10;;;;;;;22.36;54.63;102360.59;5048534;28;20039;-72
2023/10/06 01:51:35;;;;;;;0.10;0.10;;;;;;;22.79;53.13;102368.50;5053872;28;20044;-72
2023/10/06 01:54:02;;;;;;;0.10;0.10;;;;;;;22.30;55.07;102378.94;5063478;28;20108;-73
2023/10/06 01:56:30;;;;;;;0.20;0.20;;;;;;;22.33;55.35;102372.91;5048729;28;20028;-71
2023/10/06 01:58:57;;;;;;;0.10;0.10;;;;;;;22.41;54.81;102371.56;5047833;28;20040;-71
2023/10/06 02:01:22;;;;;;;0.10;0.10;;;;;;;23.05;52.99;102366.63;5056422;28;20102;-72
2023/10/06 02:03:48;;;;;;;0.10;0.10;;;;;;;22.43;54.62;102364.75;5048528;28;20033;-71
2023/10/06 02:06:15;;;;;;;0.17;0.17;;;;;;;22.32;55.58;102360.31;5030336;28;20080;-72
2023/10/06 02:08:43;;;;;;;0.20;0.20;;;;;;;22.82;53.59;102358.91;5048563;28;20041;-71
2023/10/06 02:11:08;;;;;;;0.20;0.20;;;;;;;22.68;53.35;102353.91;5049479;28;20440;-73
2023/10/06 02:13:35;;;;;;;0.10;0.10;;;;;;;22.44;54.03;102352.72;5030849;28;20060;-73
2023/10/06 02:16:03;;;;;;;0.10;0.10;;;;;;;22.53;54.29;102359.31;5048418;28;20040;-73
2023/10/06 02:18:37;;;;;;;0.10;0.10;;;;;;;21.01;59.83;102355.72;5048522;28;20046;-71
2023/10/06 02:21:23;;;;;;;0.13;0.13;;;;;;;21.19;59.44;102349.06;5048790;28;20064;-71
2023/10/06 02:23:50;;;;;;;0.10;0.10;;;;;;;21.71;57.28;102344.56;5048853;28;20033;-72
2023/10/06 02:26:16;;;;;;;0.15;0.15;;;;;;;21.68;57.39;102340.44;5048850;28;20100;-69
2023/10/06 02:28:48;;;;;;;0.20;0.20;;;;;;;21.35;58.01;102338.00;5049009;28;20036;-72
2023/10/06 02:31:14;;;;;;;0.10;0.10;;;;;;;21.14;59.28;102355.31;5048491;28;20128;-72
2023/10/06 02:33:39;;;;;;;0.20;0.20;;;;;;;20.84;60.33;102350.31;5048553;28;20116;-72
2023/10/06 02:36:17;;;;;;;0.10;0.10;;;;;;;20.30;62.50;102347.72;5048617;28;20037;-71
2023/10/06 02:38:46;;;;;;;0.10;0.10;;;;;;;20.93;59.12;102346.03;5048999;28;20091;-72
2023/10/06 02:41:19;;;;;;;0.10;0.10;;;;;;;21.30;58.06;102343.44;5049030;28;20064;-71
2023/10/06 02:43:55;;;;;;;0.10;0.10;;;;;;;21.41;58.68;102342.41;5068766;28;20508;-71
2023/10/06 02:46:22;;;;;;;0.20;0.20;;;;;;;20.79;60.02;102343.97;5068329;28;20036;-69
2023/10/06 02:48:49;;;;;;;0.20;0.20;;;;;;;20.74;61.68;102344.72;5067254;28;20068;-72
2023/10/06 02:51:43;;;;;;;0.10;0.10;;;;;;;20.41;61.79;102330.38;5068165;28;20056;-72
2023/10/06 02:54:14;;;;;;;0.20;0.20;;;;;;;21.09;59.69;102322.41;5068681;28;20040;-72
2023/10/06 02:56:40;;;;;;;0.20;0.20;;;;;;;20.87;60.30;102324.38;5068325;28;20155;-70
2023/10/06 02:59:20;;;;;;;0.10;0.10;;;;;;;20.83;60.58;102331.44;5051401;28;20043;-71
2023/10/06 03:01:52;;;;;;;0.10;0.10;;;;;;;20.85;60.70;102318.34;5072500;28;20098;-72
2023/10/06 03:04:21;;;;;;;0.10;0.10;;;;;;;20.63;60.89;102326.56;5071936;28;20139;-71
2023/10/06 03:06:53;;;;;;;0.10;0.10;;;;;;;21.05;59.59;102321.28;5072116;28;20075;-72
2023/10/06 03:09:19;;;;;;;0.10;0.10;;;;;;;20.45;61.99;102315.97;5072134;28;20039;-71
2023/10/06 03:11:49;;;;;;;0.10;0.10;;;;;;;20.89;60.34;102316.75;5072066;28;20520;-72
2023/10/06 03:14:24;;;;;;;0.10;0.10;;;;;;;21.67;56.80;102305.13;5054165;28;20064;-71
2023/10/06 03:16:51;;;;;;;0.10;0.10;;;;;;;21.06;59.57;102311.19;5071673;28;20040;-71
2023/10/06 03:19:18;;;;;;;0.15;0.15;;;;;;;21.37;58.35;102296.69;5071656;28;20044;-71
2023/10/06 03:21:45;;;;;;;0.10;0.10;;;;;;;21.74;56.68;102302.97;5071818;28;20539;-71
2023/10/06 03:24:16;;;;;;;0.20;0.20;;;;;;;21.02;59.44;102299.13;5071913;28;20025;-71
2023/10/06 03:26:44;;;;;;;0.10;0.10;;;;;;;20.55;61.29;102302.44;5068331;28;20040;-71
2023/10/06 03:29:19;;;;;;;0.10;0.10;;;;;;;20.93;59.51;102306.94;5052667;28;20021;-71
2023/10/06 03:31:45;;;;;;;0.20;0.20;;;;;;;21.18;58.66;102303.66;5051843;28;20123;-71
2023/10/06 03:34:15;;;;;;;0.20;0.20;;;;;;;20.91;59.63;102309.13;5033609;28;20029;-71
2023/10/06 03:36:48;;;;;;;0.10;0.10;;;;;;;20.87;60.19;102292.38;5051883;28;20037;-72
2023/10/06 03:39:21;;;;;;;0.10;0.10;;;;;;;20.93;59.80;102299.56;5051553;28;20047;-70
2023/10/06 03:41:50;;;;;;;0.20;0.20;;;;;;;20.55;61.19;102305.16;5051629;28;20110;-72
2023/10/06 03:44:24;;;;;;;0.20;0.20;;;;;;;20.63;60.36;102299.25;5059036;28;20361;-71
2023/10/06 03:46:50;;;;;;;0.13;0.13;;;;;;;20.15;62.95;102296.44;5063338;28;20152;-70
2023/10/06 03:49:18;;;;;;;0.10;0.10;;;;;;;20.17;62.84;102303.31;5051464;28;20540;-71
2023/10/06 03:51:44;;;;;;;0.10;0.10;;;;;;;20.82;60.49;102297.81;5050996;28;20044;-71
2023/10/06 03:54:10;;;;;;;0.10;0.10;;;;;;;20.52;60.31;102291.22;5051454;28;20112;-71
2023/10/06 03:56:36;;;;;;;0.10;0.10;;;;;;;20.94;60.21;102293.03;5051065;28;20512;-72
2023/10/06 03:59:05;;;;;;;0.17;0.17;;;;;;;20.34;61.78;102295.09;5069022;28;20103;-71
2023/10/06 04:01:31;;;;;;;0.10;0.10;;;;;;;20.82;60.17;102286.88;5057991;28;20032;-72
2023/10/06 04:03:58;;;;;;;0.20;0.20;;;;;;;20.82;60.25;102286.88;5039588;28;20060;-70
2023/10/06 04:06:25;;;;;;;0.10;0.10;;;;;;;20.36;62.84;102289.38;5038903;28;20121;-71
2023/10/06 04:08:52;;;;;;;0.10;0.10;;;;;;;21.10;60.33;102284.97;5050991;28;20033;-72
2023/10/06 04:11:18;;;;;;;0.10;0.10;;;;;;;21.02;60.05;102285.44;5050193;28;20620;-70
2023/10/06 04:13:44;;;;;;;0.10;0.10;;;;;;;21.82;56.83;102284.19;5051392;28;20074;-71
2023/10/06 04:16:09;;;;;;;0.28;0.28;;;;;;;20.55;61.34;102283.31;5050246;28;20041;-70
2023/10/06 04:18:35;;;;;;;0.20;0.20;;;;;;;20.32;62.96;102272.69;5061180;28;20040;-70
2023/10/06 04:21:02;;;;;;;0.10;0.10;;;;;;;20.55;61.82;102277.03;5064898;28;20059;-71
2023/10/06 04:23:28;;;;;;;0.10;0.10;;;;;;;20.69;61.29;102260.00;5051093;28;20074;-70
2023/10/06 04:25:56;;;;;;;0.10;0.10;;;;;;;20.14;63.54;102272.97;5051383;28;20392;-72
2023/10/06 04:28:25;;;;;;;0.20;0.20;;;;;;;20.72;61.61;102264.91;5050668;28;20059;-71
2023/10/06 04:30:50;;;;;;;0.20;0.20;;;;;;;20.60;61.97;102274.38;5050485;28;20140;-72
2023/10/06 04:33:18;;;;;;;0.20;0.20;;;;;;;20.37;62.42;102274.63;5050663;28;20412;-73
2023/10/06 04:38:29;;;;;;;0.10;0.10;;;;;;;20.59;62.66;102265.34;5050641;28;20455;-73
2023/10/06 04:40:56;;;;;;;0.17;0.17;;;;;;;20.35;62.87;102274.06;5050752;28;20037;-72
2023/10/06 04:43:22;;;;;;;0.10;0.10;;;;;;;20.48;62.60;102265.50;5050111;28;20033;-72
2023/10/06 04:45:48;;;;;;;0.13;0.13;;;;;;;21.47;59.02;102263.94;5044263;28;20041;-71
2023/10/06 04:48:15;;;;;;;0.20;0.20;;;;;;;20.65;61.99;102255.28;5050283;28;20056;-71
2023/10/06 04:50:42;;;;;;;0.10;0.10;;;;;;;20.64;61.25;102254.44;5052960;28;20067;-73
2023/10/06 04:53:08;;;;;;;0.10;0.10;;;;;;;20.65;61.92;102258.00;5070381;28;20021;-73
2023/10/06 04:55:39;;;;;;;0.20;0.20;;;;;;;21.48;58.20;102249.19;5051259;28;20185;-71
2023/10/06 04:58:08;;;;;;;0.10;0.10;;;;;;;20.06;63.50;102240.66;5049736;28;20033;-72
2023/10/06 05:00:33;;;;;;;0.13;0.13;;;;;;;20.34;62.67;102239.66;5049752;28;20052;-71
2023/10/06 05:02:59;;;;;;;0.10;0.10;;;;;;;20.64;61.46;102238.06;5049944;28;20514;-73
2023/10/06 05:05:26;;;;;;;0.10;0.10;;;;;;;20.79;61.79;102238.22;5049681;28;20028;-73
2023/10/06 05:07:53;;;;;;;0.10;0.10;;;;;;;20.46;62.63;102252.06;5044569;28;20020;-72
2023/10/06 05:10:21;;;;;;;0.10;0.10;;;;;;;20.40;62.10;102239.44;5066322;28;20140;-71
2023/10/06 05:12:48;;;;;;;0.13;0.13;;;;;;;20.15;63.54;102234.50;5057020;28;20053;-71
2023/10/06 05:15:30;;;;;;;0.10;0.10;;;;;;;20.33;62.07;102244.28;5036197;28;20033;-70
2023/10/06 05:17:56;;;;;;;0.10;0.10;;;;;;;20.32;62.60;102236.34;5049473;28;20045;-71
2023/10/06 05:20:29;;;;;;;0.10;0.10;;;;;;;20.24;63.17;102242.25;5049679;28;20021;-69
2023/10/06 05:23:01;;;;;;;0.13;0.13;;;;;;;20.46;61.83;102243.06;5050356;28;20396;-71
2023/10/06 05:25:29;;;;;;;0.10;0.10;;;;;;;21.27;59.65;102242.75;5068406;28;20112;-72
2023/10/06 05:27:59;;;;;;;0.10;0.10;;;;;;;20.51;61.51;102251.31;5055376;28;20041;-72
2023/10/06 05:30:28;;;;;;;0.10;0.10;;;;;;;20.50;61.31;102260.59;5062181;28;20047;-71
2023/10/06 05:32:58;;;;;;;0.10;0.10;;;;;;;20.12;62.97;102247.81;5048901;28;20041;-72
2023/10/06 05:35:45;;;;;;;0.10;0.10;;;;;;;20.63;61.93;102243.78;5056452;28;20085;-71
2023/10/06 05:38:13;;;;;;;0.25;0.25;;;;;;;20.40;62.54;102224.97;5072702;28;20008;-73
2023/10/06 05:40:40;;;;;;;0.10;0.10;;;;;;;20.65;61.70;102230.69;5060522;28;20095;-72
2023/10/06 05:43:05;;;;;;;0.20;0.20;;;;;;;20.70;60.89;102236.19;5072758;28;20511;-72
2023/10/06 05:45:31;;;;;;;0.20;0.20;;;;;;;19.87;64.37;102240.13;5069067;28;20032;-71
2023/10/06 05:48:06;;;;;;;0.10;0.10;;;;;;;20.62;61.95;102236.66;5063682;28;20454;-72
2023/10/06 05:50:35;;;;;;;0.10;0.10;;;;;;;21.28;59.75;102235.38;5075162;28;20396;-71
2023/10/06 05:53:07;;;;;;;0.10;0.10;;;;;;;20.84;59.91;102235.53;5059017;28;20044;-71
2023/10/06 05:55:37;;;;;;;0.10;0.10;;;;;;;20.76;60.66;102237.91;5048740;28;20036;-72
2023/10/06 05:58:09;;;;;;;0.08;0.08;;;;;;;19.78;65.01;102243.53;5069454;28;20043;-73
2023/10/06 06:00:43;;;;;;;0.10;0.10;;;;;;;20.35;63.23;102239.38;5067248;28;20040;-72
2023/10/06 06:03:13;;;;;;;0.10;0.10;;;;;;;20.64;62.03;102246.25;5055956;28;20100;-72
2023/10/06 06:05:39;;;;;;;0.20;0.20;;;;;;;20.37;63.07;102256.34;5065825;28;20052;-72
2023/10/06 06:08:08;;;;;;;0.10;0.10;;;;;;;20.95;61.21;102242.72;5049851;28;20039;-74
2023/10/06 06:10:35;;;;;;;0.10;0.10;;;;;;;20.51;62.19;102245.84;5068077;28;20090;-73
2023/10/06 06:13:00;;;;;;;0.10;0.10;;;;;;;20.29;63.09;102239.56;5054805;28;20124;-72
2023/10/06 06:15:26;;;;;;;0.20;0.20;;;;;;;20.87;60.78;102234.19;5058647;28;20040;-72
2023/10/06 06:17:53;;;;;;;0.10;0.10;;;;;;;20.97;60.93;102226.91;5064039;28;20048;-72
2023/10/06 06:20:21;;;;;;;0.10;0.10;;;;;;;21.24;59.62;102231.50;5049240;28;20469;-72
2023/10/06 06:22:53;;;;;;;0.20;0.20;;;;;;;20.85;61.51;102233.63;5049235;28;20040;-72
2023/10/06 06:25:22;;;;;;;0.10;0.10;;;;;;;20.95;60.93;102233.72;5048584;28;20033;-73
2023/10/06 06:27:48;;;;;;;0.10;0.10;;;;;;;20.52;62.06;102236.59;5048616;28;20152;-72
2023/10/06 06:30:18;;;;;;;0.20;0.20;;;;;;;21.07;60.82;102239.03;5049450;28;20037;-71
2023/10/06 06:32:50;;;;;;;0.10;0.10;;;;;;;20.87;60.92;102245.94;5053566;28;20037;-71
2023/10/06 06:35:19;;;;;;;0.10;0.10;;;;;;;20.64;62.12;102253.63;5067509;28;20960;-69
2023/10/06 06:37:51;;;;;;;0.10;0.10;;;;;;;20.48;62.27;102246.38;5054937;28;20093;-71
2023/10/06 06:40:22;;;;;;;0.10;0.10;;;;;;;20.90;61.02;102234.50;5056102;28;20036;-73
2023/10/06 06:42:49;;;;;;;0.10;0.10;;;;;;;20.94;60.65;102238.34;5052535;28;20136;-71
2023/10/06 06:45:15;;;;;;;0.17;0.17;;;;;;;21.23;60.85;102247.09;5052626;28;20033;-71
2023/10/06 06:47:41;;;;;;;0.10;0.10;;;;;;;21.05;60.44;102246.69;5052382;28;20049;-71
2023/10/06 06:50:13;;;;;;;0.10;0.10;;;;;;;20.66;61.76;102246.00;5052559;28;20040;-72
2023/10/06 06:52:39;;;;;;;0.10;0.10;;;;;;;21.45;59.58;102242.34;5052442;28;20487;-71
2023/10/06 06:55:12;;;;;;;0.10;0.10;;;;;;;21.18;60.13;102246.22;5052309;28;20504;-71
2023/10/06 06:57:41;;;;;;;0.10;0.10;;;;;;;21.12;60.66;102252.75;5058395;28;20032;-72
2023/10/06 07:00:09;;;;;;;0.10;0.10;;;;;;;20.54;62.76;102259.81;5072292;28;20468;-71
2023/10/06 07:02:35;;;;;;;0.10;0.10;;;;;;;20.78;62.12;102258.44;5072289;28;20032;-72
2023/10/06 07:05:01;;;;;;;0.10;0.10;;;;;;;21.13;60.30;102260.69;5072858;28;20032;-71
2023/10/06 07:07:26;;;;;;;0.20;0.20;;;;;;;20.85;61.79;102275.41;5072169;28;20044;-71
2023/10/06 07:09:52;;;;;;;0.20;0.20;;;;;;;21.03;61.67;102260.59;5071759;28;20032;-71
2023/10/06 07:12:18;;;;;;;0.10;0.10;;;;;;;20.88;60.86;102254.97;5071988;28;20036;-73
2023/10/06 07:14:43;;;;;;;0.10;0.10;;;;;;;20.56;62.78;102262.31;5072472;28;20032;-73
2023/10/06 07:17:09;;;;;;;0.10;0.10;;;;;;;20.71;62.86;102262.44;5054061;28;20419;-71
2023/10/06 07:19:35;;;;;;;0.10;0.10;;;;;;;20.84;61.69;102264.75;5052031;28;20040;-71
2023/10/06 07:22:00;;;;;;;0.10;0.10;;;;;;;21.05;61.10;102254.88;5051788;28;20082;-72
2023/10/06 07:24:26;;;;;;;0.20;0.20;;;;;;;21.30;60.25;102257.81;5051853;28;20049;-73
2023/10/06 07:26:52;;;;;;;0.10;0.10;;;;;;;20.41;63.20;102262.13;5052157;28;20033;-72
2023/10/06 07:29:18;;;;;;;0.10;0.10;;;;;;;21.30;60.51;102274.22;5059206;28;20024;-73
2023/10/06 07:31:43;;;;;;;0.10;0.10;;;;;;;20.90;61.77;102266.47;5065009;28;20048;-73
2023/10/06 07:34:09;;;;;;;0.10;0.10;;;;;;;21.18;61.01;102266.19;5052187;28;20040;-71
2023/10/06 07:36:37;;;;;;;0.10;0.10;;;;;;;20.59;62.71;102259.03;5051509;28;20056;-72
2023/10/06 07:39:08;;;;;;;0.10;0.10;;;;;;;21.84;59.02;102259.28;5051569;28;20044;-73
2023/10/06 07:41:34;;;;;;;0.10;0.10;;;;;;;20.88;61.95;102258.53;5052107;28;20024;-72
2023/10/06 07:43:59;;;;;;;0.17;0.17;;;;;;;20.52;62.35;102266.63;5034962;28;20033;-71
2023/10/06 07:46:26;;;;;;;0.10;0.10;;;;;;;20.58;63.37;102266.41;5050743;28;20117;-73
2023/10/06 07:48:53;;;;;;;0.20;0.20;;;;;;;21.05;61.01;102266.63;5051689;28;20097;-73
2023/10/06 07:51:19;;;;;;;0.10;0.10;;;;;;;21.35;61.04;102261.41;5051426;28;20040;-71
2023/10/06 07:53:45;;;;;;;0.10;0.10;;;;;;;21.22;61.31;102263.75;5051574;28;20118;-73
2023/10/06 07:56:13;;;;;;;0.10;0.10;;;;;;;21.53;60.38;102266.47;5052181;28;20456;-71
2023/10/06 07:58:43;;;;;;;0.10;0.10;;;;;;;20.81;62.46;102260.63;5047094;28;20473;-73
2023/10/06 08:01:09;;;;;;;0.10;0.10;;;;;;;20.61;63.47;102267.81;5050292;28;20069;-72
2023/10/06 08:03:38;;;;;;;0.20;0.17;;;;;;;21.22;61.38;102258.28;5050883;28;20033;-70
2023/10/06 08:06:05;;;;;;;0.10;0.10;;;;;;;21.50;60.83;102253.31;5031186;28;20061;-72
2023/10/06 08:08:35;;;;;;;0.10;0.10;;;;;;;21.79;59.25;102271.03;5030776;28;20048;-73
2023/10/06 08:11:05;;;;;;;0.10;0.10;;;;;;;21.57;59.21;102266.75;5031543;28;20172;-72
2023/10/06 08:13:35;;;;;;;0.10;0.10;;;;;;;21.22;61.58;102259.13;5030855;28;20568;-71
2023/10/06 08:16:01;;;;;;;0.10;0.10;;;;;;;22.02;58.42;102261.56;5020998;28;20047;-71
2023/10/06 08:18:30;;;;;;;0.10;0.10;;;;;;;22.34;58.12;102258.69;5060431;28;20044;-71
2023/10/06 08:20:57;;;;;;;0.10;0.10;;;;;;;22.02;58.88;102266.22;5070656;28;20041;-70
2023/10/06 08:23:23;;;;;;;0.10;0.10;;;;;;;22.01;58.11;102259.94;5069620;28;20036;-69
2023/10/06 08:25:49;;;;;;;0.10;0.10;;;;;;;22.57;56.83;102263.72;5060342;28;20035;-72
2023/10/06 08:28:15;;;;;;;0.08;0.08;;;;;;;22.01;58.72;102259.94;5060906;28;20090;-71
2023/10/06 08:30:40;;;;;;;0.10;0.10;;;;;;;22.53;56.72;102246.97;5050661;28;20033;-71
2023/10/06 08:33:09;;;;;;;0.10;0.10;;;;;;;22.65;56.22;102249.50;5050496;28;20037;-72
2023/10/06 08:35:36;;;;;;;0.10;0.10;;;;;;;22.27;58.47;102266.34;5050190;28;20052;-71
2023/10/06 08:38:02;;;;;;;0.10;0.10;;;;;;;21.43;60.42;102276.50;5050585;28;20037;-70
2023/10/06 08:40:29;;;;;;;0.08;0.08;;;;;;;22.36;57.88;102267.47;5050162;28;20088;-71
2023/10/06 08:42:56;;;;;;;0.10;0.10;;;;;;;23.04;55.87;102269.81;5050360;28;20048;-69
2023/10/06 08:45:24;;;;;;;0.10;0.10;;;;;;;22.13;58.70;102271.47;5046011;28;20094;-71
2023/10/06 08:47:58;;;;;;;0.10;0.10;;;;;;;22.13;58.60;102268.72;5031664;28;20037;-71
2023/10/06 08:50:27;;;;;;;0.10;0.10;;;;;;;22.77;57.26;102261.03;5031376;28;20045;-70
2023/10/06 08:52:54;;;;;;;0.10;0.10;;;;;;;23.20;55.15;102255.03;5035633;28;20016;-71
2023/10/06 08:55:20;;;;;;;0.10;0.10;;;;;;;22.91;55.45;102255.84;5031381;28;20037;-71
2023/10/06 08:57:47;;;;;;;0.10;0.10;;;;;;;22.73;56.18;102262.66;5037599;28;20115;-72
2023/10/06 09:00:14;;;;;;;0.10;0.10;;;;;;;23.11;55.80;102248.44;5051313;28;20033;-72
2023/10/06 09:02:41;;;;;;;0.00;0.00;;;;;;;22.43;56.88;102260.63;5039499;28;20111;-70
2023/10/06 09:05:11;;;;;;;0.08;0.08;;;;;;;23.16;55.30;102255.84;5031197;28;20040;-70
2023/10/06 09:07:37;;;;;;;0.00;0.00;;;;;;;24.26;52.02;102257.53;5030877;28;20041;-71
2023/10/06 09:10:23;;;;;;;0.08;0.08;;;;;;;23.41;54.78;102256.66;5030469;28;20371;-70
2023/10/06 09:12:59;;;;;;;0.10;0.10;;;;;;;23.96;53.24;102254.91;5030417;28;20034;-72
2023/10/06 09:15:25;;;;;;;0.00;0.00;;;;;;;23.02;55.56;102263.78;5034638;28;20029;-70
2023/10/06 09:17:53;;;;;;;0.00;0.00;;;;;;;22.88;55.68;102264.63;5050210;28;20044;-70
2023/10/06 09:20:31;;;;;;;0.10;0.10;;;;;;;23.66;53.60;102250.34;5039141;28;20017;-70
2023/10/06 09:22:58;;;;;;;0.10;0.10;;;;;;;23.60;53.21;102248.69;5047067;28;20017;-70
2023/10/06 09:25:24;;;;;;;0.00;0.00;;;;;;;23.31;54.26;102245.69;5046106;28;20110;-71
2023/10/06 09:28:04;;;;;;;0.05;0.05;;;;;;;23.37;54.50;102244.59;5049491;28;20067;-70
2023/10/06 09:30:30;;;;;;;0.00;0.00;;;;;;;24.17;52.21;102248.25;5049154;28;20057;-71
2023/10/06 09:33:04;;;;;;;0.10;0.10;;;;;;;23.10;54.86;102265.16;5049533;28;20119;-73
2023/10/06 09:35:30;;;;;;;0.10;0.10;;;;;;;23.06;54.47;102250.34;5049833;28;20021;-70
2023/10/06 09:38:17;;;;;;;0.10;0.10;;;;;;;23.66;54.05;102249.50;5049965;28;20374;-70
2023/10/06 09:40:44;;;;;;;0.00;0.00;;;;;;;23.30;54.13;102259.66;5049938;28;20037;-71
2023/10/06 09:43:18;;;;;;;0.10;0.10;;;;;;;23.31;54.00;102253.13;5049411;28;20033;-68
2023/10/06 09:45:43;;;;;;;0.10;0.10;;;;;;;23.65;54.05;102259.66;5049381;28;20033;-71
2023/10/06 09:48:18;;;;;;;0.00;0.00;;;;;;;23.63;53.69;102239.91;5049135;28;20044;-71
2023/10/06 09:50:45;;;;;;;0.00;0.00;;;;;;;23.74;53.15;102244.28;5049136;28;20382;-70
2023/10/06 09:53:14;;;;;;;0.10;0.10;;;;;;;23.49;53.46;102228.66;5049874;28;20396;-71
2023/10/06 09:55:40;;;;;;;0.00;0.00;;;;;;;23.81;53.56;102222.81;5048978;28;20037;-69
2023/10/06 09:58:07;;;;;;;0.00;0.00;;;;;;;23.63;53.36;102228.91;5058922;28;20032;-69
2023/10/06 10:00:39;;;;;;;0.10;0.10;;;;;;;23.48;53.58;102239.94;5069045;28;20053;-71
2023/10/06 10:03:09;;;;;;;0.00;0.00;;;;;;;23.97;53.16;102226.34;5069070;28;20028;-71
2023/10/06 10:05:38;;;;;;;0.00;0.00;;;;;;;24.03;52.75;102233.47;5069262;28;20434;-71
2023/10/06 10:08:04;;;;;;;0.10;0.10;;;;;;;23.96;52.67;102228.25;5069078;28;20388;-71
2023/10/06 10:10:30;;;;;;;0.00;0.00;;;;;;;24.15;52.74;102218.34;5067490;28;20032;-71
2023/10/06 10:13:19;;;;;;;0.08;0.08;;;;;;;24.69;51.25;102225.69;5068982;28;20051;-71
2023/10/06 10:16:09;;;;;;;0.00;0.00;;;;;;;24.47;52.18;102234.34;5062247;28;20120;-72
2023/10/06 10:18:48;;;;;;;0.05;0.05;;;;;;;24.49;51.79;102225.84;5054627;28;20033;-71
2023/10/06 10:21:15;;;;;;;0.00;0.00;;;;;;;24.52;52.38;102225.25;5049088;28;20064;-69
2023/10/06 10:23:43;;;;;;;0.10;0.10;;;;;;;24.50;51.80;102228.28;5048736;28;20106;-71
2023/10/06 10:26:27;;;;;;;0.00;0.00;;;;;;;24.37;51.79;102221.50;5049035;28;20025;-69
2023/10/06 10:29:17;;;;;;;0.00;0.00;;;;;;;24.46;51.89;102212.66;5048992;28;20045;-71
2023/10/06 10:31:47;;;;;;;0.00;0.00;;;;;;;24.42;51.66;102209.66;5048618;28;20053;-71
2023/10/06 10:34:22;;;;;;;0.00;0.00;;;;;;;24.98;50.66;102210.91;5048913;28;20048;-71
2023/10/06 10:36:54;;;;;;;0.00;0.00;;;;;;;24.82;51.00;102220.41;5048722;28;20128;-70
2023/10/06 10:39:20;;;;;;;0.00;0.00;;;;;;;24.59;50.83;102220.28;5048676;28;20040;-69
2023/10/06 10:41:46;;;;;;;0.00;0.00;;;;;;;25.72;48.79;102223.41;5029261;28;20045;-73
2023/10/06 10:44:14;;;;;;;0.00;0.00;;;;;;;24.23;51.89;102220.50;5049117;28;20135;-71
2023/10/06 10:46:39;;;;;;;0.10;0.10;;;;;;;25.33;49.78;102228.22;5048238;28;20064;-70
2023/10/06 10:49:08;;;;;;;0.00;0.00;;;;;;;25.41;48.54;102227.63;5048430;28;20124;-72
2023/10/06 10:51:54;;;;;;;0.00;0.00;;;;;;;25.01;49.68;102213.09;5048227;28;20075;-69
2023/10/06 10:54:22;;;;;;;0.00;0.00;;;;;;;24.46;51.13;102202.47;5048503;28;20561;-70
2023/10/06 10:56:51;;;;;;;0.00;0.00;;;;;;;25.15;49.78;102216.81;5048534;28;20033;-71
2023/10/06 10:59:17;;;;;;;0.10;0.10;;;;;;;24.61;50.75;102207.88;5067847;28;20024;-67
2023/10/06 11:01:44;;;;;;;0.00;0.00;;;;;;;23.84;52.66;102204.97;5068709;28;20479;-72
2023/10/06 11:04:18;;;;;;;0.00;0.00;;;;;;;24.15;52.71;102210.09;5068359;28;20044;-71
2023/10/06 11:06:48;;;;;;;0.10;0.10;;;;;;;24.65;51.18;102208.13;5068328;28;20036;-69
2023/10/06 11:09:36;;;;;;;0.00;0.00;;;;;;;24.12;52.20;102220.78;5050068;28;20033;-70
2023/10/06 11:12:05;;;;;;;0.10;0.10;;;;;;;23.81;53.01;102214.59;5068199;28;20047;-70
2023/10/06 11:14:37;;;;;;;0.08;0.08;;;;;;;24.08;52.18;102204.06;5069817;28;20107;-70
2023/10/06 11:17:03;;;;;;;0.00;0.00;;;;;;;24.66;50.92;102212.50;5070968;28;20141;-71
2023/10/06 11:19:33;;;;;;;0.08;0.08;;;;;;;24.83;51.16;102205.53;5050282;28;20266;-70
2023/10/06 11:22:11;;;;;;;0.00;0.00;;;;;;;25.57;49.04;102218.88;5051794;28;20040;-70
2023/10/06 11:24:39;;;;;;;0.00;0.00;;;;;;;25.31;49.32;102208.41;5052042;28;20449;-72
2023/10/06 11:27:14;;;;;;;0.00;0.00;;;;;;;24.93;50.35;102199.97;5052103;28;20040;-70
2023/10/06 11:29:40;;;;;;;0.00;0.00;;;;;;;24.54;51.54;102201.06;5051677;28;20037;-70
2023/10/06 11:32:06;;;;;;;0.00;0.00;;;;;;;24.56;51.02;102196.09;5052035;28;20503;-71
2023/10/06 11:34:32;;;;;;;0.00;0.00;;;;;;;25.12;50.69;102200.88;5051308;28;20076;-72
2023/10/06 11:36:58;;;;;;;0.00;0.00;;;;;;;25.50;49.43;102192.81;5051589;28;20397;-70